This is the latest recevied weather packets stored in our database for station/object DL1SEW-6. If no packets are shown the sender has not sent any weather packets the latest 10 day(s).
| Time | Temp. | Humidity | Pressure | Rain* | Wind** | Luminosity | Snow |
|---|---|---|---|---|---|---|---|
| 1777878610 | 15.56° C | 63% | 1013.8 hPa | 0 mm | - | 230 W/m² | - |
| 1777877710 | 14.44° C | 67% | 1013.6 hPa | 0 mm | - | 289 W/m² | - |
| 1777876810 | 13.89° C | 67% | 1013.4 hPa | 0 mm | - | 222 W/m² | - |
| 1777875909 | 13.33° C | 69% | 1013.5 hPa | 0 mm | - | 206 W/m² | - |
| 1777875009 | 12.22° C | 72% | 1013.3 hPa | 0 mm | - | 214 W/m² | - |
| 1777874109 | 11.11° C | 72% | 1013.3 hPa | 0 mm | - | 156 W/m² | - |
| 1777873210 | 10.56° C | 72% | 1013.2 hPa | 0 mm | - | 127 W/m² | - |
| 1777872311 | 10.56° C | 71% | 1013.3 hPa | 0 mm | - | 88 W/m² | - |
| 1777871412 | 10.56° C | 72% | 1013.3 hPa | 0 mm | - | 86 W/m² | - |
| 1777870509 | 10.56° C | 72% | 1013.3 hPa | 0 mm | - | 85 W/m² | - |
| 1777869613 | 10° C | 72% | 1013.3 hPa | 0 mm | - | 63 W/m² | - |
| 1777868713 | 10.56° C | 70% | 1013.1 hPa | 0 mm | - | 23 W/m² | - |
| 1777867813 | 10.56° C | 69% | 1013.1 hPa | 0 mm | - | 2 W/m² | - |
| 1777866913 | 9.44° C | 72% | 1013 hPa | 0 mm | - | 0 W/m² | - |
| 1777866013 | 8.89° C | 73% | 1013.1 hPa | 0 mm | - | 0 W/m² | - |
| 1777865112 | 9.44° C | 73% | 1013.2 hPa | 0 mm | - | 0 W/m² | - |
| 1777864212 | 10° C | 72% | 1013.5 hPa | 0 mm | - | 0 W/m² | - |
| 1777863312 | 10.56° C | 71% | 1013.4 hPa | 0 mm | - | 0 W/m² | - |
| 1777862413 | 11.11° C | 71% | 1013.7 hPa | 0 mm | - | 0 W/m² | - |
| 1777861514 | 11.67° C | 70% | 1013.8 hPa | 0 mm | - | 0 W/m² | - |
| 1777860611 | 11.67° C | 69% | 1013.8 hPa | 0 mm | - | 0 W/m² | - |
| 1777859711 | 12.22° C | 69% | 1013.8 hPa | 0 mm | - | 0 W/m² | - |
| 1777858811 | 12.22° C | 68% | 1013.8 hPa | 0 mm | - | 0 W/m² | - |
| 1777857911 | 12.22° C | 67% | 1013.7 hPa | 0 mm | - | 0 W/m² | - |
| 1777857011 | 12.22° C | 68% | 1013.8 hPa | 0 mm | - | 0 W/m² | - |
* Rain latest hour (hover to see other rain measurements)
** Current wind speed in m/s (hover to see current wind gust speed)